Time;durP1;ratioP1;P1;durP2;ratioP2;P2;SDS_P1;SDS_P2;PMS_P1;PMS_P2;Temp;Humidity;BMP_temperature;BMP_pressure;BME280_temperature;BME280_humidity;BME280_pressure;Samples;Min_cycle;Max_cycle;Signal;HPM_P1;HPM_P2
2022/10/24 04:03:32;;;;;;;1.20;1.20;;;;;;;15.50;54.52;95126.00;2480741;54;50740;-84
2022/10/24 04:06:00;;;;;;;2.17;1.97;;;;;;;14.57;56.83;95136.72;2618538;47;20191;-85
2022/10/24 04:08:29;;;;;;;1.93;1.83;;;;;;;14.50;58.47;95165.72;2619115;47;20148;-83
2022/10/24 04:10:58;;;;;;;1.00;1.00;;;;;;;13.88;59.18;95162.66;2618892;47;20242;-82
2022/10/24 04:13:26;;;;;;;3.30;2.43;;;;;;;14.75;57.53;95142.16;2619199;54;20191;-85
2022/10/24 04:15:55;;;;;;;2.37;1.67;;;;;;;14.09;60.26;95138.28;2619102;46;20183;-85
2022/10/24 04:18:24;;;;;;;3.20;1.93;;;;;;;14.19;60.32;95147.84;2623587;46;20137;-86
2022/10/24 04:20:55;;;;;;;2.07;1.97;;;;;;;14.92;58.07;95151.78;2626849;54;20153;-86
2022/10/24 04:23:24;;;;;;;3.03;2.83;;;;;;;14.24;57.67;95089.56;2620404;54;20152;-84
2022/10/24 04:25:53;;;;;;;2.60;2.00;;;;;;;14.05;58.81;95121.09;2619531;47;20145;-82
2022/10/24 04:28:22;;;;;;;1.43;1.40;;;;;;;14.87;55.71;95145.28;2619011;54;20172;-83
2022/10/24 04:30:56;;;;;;;2.00;1.90;;;;;;;14.70;57.47;95159.81;2618484;54;20168;-83
2022/10/24 04:33:26;;;;;;;1.93;1.83;;;;;;;15.16;54.83;95071.78;2618426;54;20149;-84
2022/10/24 04:35:58;;;;;;;2.90;1.60;;;;;;;16.22;52.79;95143.88;2618579;54;20169;-84
2022/10/24 04:38:27;;;;;;;1.30;1.27;;;;;;;16.39;51.79;95129.91;2618677;54;20149;-80
2022/10/24 04:40:56;;;;;;;2.23;1.57;;;;;;;16.92;51.35;95175.16;2618148;54;20695;-82
2022/10/24 04:43:26;;;;;;;2.70;2.47;;;;;;;16.95;51.20;95176.63;2618093;47;20310;-80
2022/10/24 04:45:55;;;;;;;1.57;1.47;;;;;;;17.19;49.73;95179.16;2618331;47;20160;-79
2022/10/24 04:48:24;;;;;;;1.90;1.80;;;;;;;17.18;50.26;95168.41;2617832;47;20145;-80
2022/10/24 04:50:53;;;;;;;5.17;2.37;;;;;;;17.07;49.98;95164.69;2618793;54;20194;-81
2022/10/24 04:53:24;;;;;;;2.60;2.50;;;;;;;17.11;51.11;95184.03;2618799;47;20157;-82
2022/10/24 04:55:53;;;;;;;8.30;3.40;;;;;;;16.38;50.26;95177.03;2618581;54;20191;-81
2022/10/24 04:58:22;;;;;;;4.13;2.67;;;;;;;14.18;56.95;95157.78;2618669;54;20149;-81
2022/10/24 05:00:51;;;;;;;3.13;2.80;;;;;;;13.53;60.34;95180.84;2618171;47;20396;-81
2022/10/24 05:03:22;;;;;;;3.70;2.53;;;;;;;12.87;63.08;95174.53;2618103;54;20199;-82
2022/10/24 05:05:51;;;;;;;1.80;1.70;;;;;;;12.30;65.21;95174.81;2618592;47;20160;-81
2022/10/24 05:08:19;;;;;;;8.20;2.47;;;;;;;11.41;68.94;95180.81;2618430;47;20157;-81
2022/10/24 05:10:51;;;;;;;5.67;5.23;;;;;;;11.23;71.03;95180.13;2618194;54;20157;-82
2022/10/24 05:13:19;;;;;;;4.57;4.27;;;;;;;11.18;71.44;95173.59;2619262;54;20145;-82
2022/10/24 05:15:48;;;;;;;9.47;3.53;;;;;;;11.37;71.20;95177.81;2618743;47;20141;-81
2022/10/24 05:18:17;;;;;;;3.47;2.50;;;;;;;11.39;71.00;95181.47;2618399;54;20676;-83
2022/10/24 05:20:45;;;;;;;6.50;4.07;;;;;;;11.51;70.74;95181.19;2618205;54;20908;-83
2022/10/24 05:23:14;;;;;;;9.37;6.33;;;;;;;11.29;71.58;95178.25;2618461;46;20638;-82
2022/10/24 05:25:43;;;;;;;2.60;2.50;;;;;;;11.74;71.58;95185.59;2618159;46;20175;-81
2022/10/24 05:28:14;;;;;;;1.97;1.87;;;;;;;11.82;70.02;95179.50;2618476;46;20164;-81
2022/10/24 05:30:44;;;;;;;4.20;3.83;;;;;;;11.61;70.89;95175.91;2619164;47;20145;-82
2022/10/24 05:33:13;;;;;;;8.33;7.63;;;;;;;11.59;72.28;95189.28;2623188;47;20191;-81
2022/10/24 05:35:43;;;;;;;4.00;3.63;;;;;;;11.98;70.62;95186.47;2619175;54;20680;-81
2022/10/24 05:38:11;;;;;;;1.27;1.27;;;;;;;11.82;71.61;95179.50;2618152;54;20156;-81
2022/10/24 05:40:40;;;;;;;2.50;1.97;;;;;;;11.91;71.81;95161.34;2618089;47;20191;-83
2022/10/24 05:43:09;;;;;;;4.83;4.20;;;;;;;12.26;71.81;95186.00;2618250;47;20187;-82
2022/10/24 05:45:40;;;;;;;2.80;2.53;;;;;;;13.20;66.73;95189.81;2619782;54;20157;-83
2022/10/24 05:48:09;;;;;;;3.57;2.93;;;;;;;14.48;60.62;95189.22;2618527;47;20157;-83
2022/10/24 05:50:38;;;;;;;2.87;2.63;;;;;;;14.72;59.91;95154.16;2618174;47;20152;-82
2022/10/24 05:53:07;;;;;;;3.80;2.97;;;;;;;15.63;56.51;95201.97;2617857;47;20145;-82
2022/10/24 05:55:36;;;;;;;3.03;2.80;;;;;;;15.67;57.50;95198.47;2618294;46;20202;-82
2022/10/24 05:58:05;;;;;;;2.57;2.47;;;;;;;15.84;56.53;95194.56;2617719;47;20153;-81
2022/10/24 06:00:34;;;;;;;2.67;2.57;;;;;;;15.85;56.21;95170.31;2618098;54;20207;-81
2022/10/24 06:03:06;;;;;;;2.97;2.43;;;;;;;16.16;54.67;95200.19;2618028;54;20180;-82
2022/10/24 06:05:34;;;;;;;4.53;3.60;;;;;;;16.53;52.96;95222.38;2618044;47;20244;-82
2022/10/24 06:08:03;;;;;;;2.57;2.47;;;;;;;16.48;54.04;95220.84;2617736;47;20152;-83
2022/10/24 06:10:31;;;;;;;9.37;4.03;;;;;;;16.74;52.47;95228.47;2617940;54;20308;-81
2022/10/24 06:13:00;;;;;;;3.83;3.40;;;;;;;16.64;53.63;95220.44;2617617;47;20203;-81
2022/10/24 06:15:30;;;;;;;5.13;3.37;;;;;;;16.40;55.08;95217.81;2617764;54;20149;-81
2022/10/24 06:17:58;;;;;;;3.33;3.13;;;;;;;16.59;54.33;95207.44;2617699;54;20716;-82
2022/10/24 06:20:30;;;;;;;4.00;3.77;;;;;;;15.09;60.51;95221.38;2617830;46;20152;-81
2022/10/24 06:22:59;;;;;;;4.07;3.50;;;;;;;14.24;62.18;95209.19;2617650;54;20682;-81
2022/10/24 06:25:27;;;;;;;5.17;3.77;;;;;;;14.27;62.21;95195.03;2615097;47;20153;-80
2022/10/24 06:27:56;;;;;;;4.65;4.25;;;;;;;14.59;60.57;95190.22;2614002;54;20399;-78
2022/10/24 06:30:25;;;;;;;4.63;4.03;;;;;;;15.09;60.88;95219.25;2614958;47;20137;-78
2022/10/24 06:32:54;;;;;;;3.93;3.43;;;;;;;14.94;60.47;95212.47;2619554;47;20191;-80
2022/10/24 06:35:23;;;;;;;4.30;4.00;;;;;;;14.79;61.76;95218.50;2620044;47;20156;-83
2022/10/24 06:37:54;;;;;;;5.20;2.90;;;;;;;15.35;59.68;95230.56;2618584;54;20655;-82
2022/10/24 06:40:23;;;;;;;2.77;2.67;;;;;;;15.20;59.63;95226.66;2619570;47;20233;-82
2022/10/24 06:42:52;;;;;;;6.40;3.50;;;;;;;15.30;60.09;95231.88;2613446;47;20233;-83
2022/10/24 06:45:22;;;;;;;3.97;3.67;;;;;;;16.14;55.72;95223.72;2623831;54;20149;-84
2022/10/24 06:47:51;;;;;;;4.43;4.03;;;;;;;16.66;54.04;95231.91;2627624;54;20408;-84
2022/10/24 06:50:20;;;;;;;5.73;4.07;;;;;;;16.45;54.92;95227.91;2619475;54;20705;-76
2022/10/24 06:52:49;;;;;;;4.80;4.23;;;;;;;16.09;55.87;95235.78;2619330;54;20145;-74
2022/10/24 06:55:20;;;;;;;3.80;3.37;;;;;;;16.54;54.89;95240.94;2620582;47;20160;-79
2022/10/24 06:57:49;;;;;;;3.00;2.80;;;;;;;16.70;54.02;95240.56;2621016;47;20729;-80
2022/10/24 07:00:18;;;;;;;2.77;2.57;;;;;;;16.77;53.50;95236.41;2618824;54;20191;-79
2022/10/24 07:02:47;;;;;;;3.37;3.20;;;;;;;17.20;52.64;95248.59;2617848;47;20173;-77
2022/10/24 07:05:16;;;;;;;3.27;2.80;;;;;;;17.08;52.51;95234.09;2617711;47;20697;-79
2022/10/24 07:07:45;;;;;;;5.00;3.27;;;;;;;17.51;51.21;95227.59;2618083;54;20145;-78
2022/10/24 07:10:15;;;;;;;10.43;2.93;;;;;;;17.89;51.12;95243.94;2618272;54;20179;-78
2022/10/24 07:12:47;;;;;;;2.93;2.73;;;;;;;18.17;49.72;95238.59;2618737;39;20531;-79
2022/10/24 07:15:15;;;;;;;3.37;2.73;;;;;;;18.52;49.22;95241.84;2618844;47;20232;-80
2022/10/24 07:17:45;;;;;;;3.23;3.13;;;;;;;18.37;48.12;95215.16;2617730;47;20148;-82
2022/10/24 07:20:15;;;;;;;4.03;3.23;;;;;;;18.67;47.58;95229.13;2618336;54;20171;-76
2022/10/24 07:22:44;;;;;;;6.87;3.07;;;;;;;18.86;47.21;95239.38;2617747;47;20257;-76
2022/10/24 07:25:13;;;;;;;3.53;2.57;;;;;;;18.82;47.23;95242.22;2617756;47;20232;-75
2022/10/24 07:27:42;;;;;;;2.80;2.63;;;;;;;19.11;47.35;95234.59;2618124;54;20663;-75
2022/10/24 07:30:18;;;;;;;3.03;2.83;;;;;;;19.26;46.74;95236.16;2617988;47;20152;-76
2022/10/24 07:32:47;;;;;;;3.83;3.13;;;;;;;19.13;46.45;95231.75;2617833;54;20152;-75
2022/10/24 07:35:16;;;;;;;4.07;3.67;;;;;;;19.05;46.54;95208.69;2617823;54;20156;-77
2022/10/24 07:37:45;;;;;;;3.60;3.17;;;;;;;19.28;46.09;95226.81;2617900;54;20342;-79
2022/10/24 07:40:14;;;;;;;4.67;4.00;;;;;;;18.56;47.68;95228.28;2617670;54;20156;-76
2022/10/24 07:42:43;;;;;;;4.00;3.00;;;;;;;18.82;48.03;95239.34;2617597;47;20168;-81
2022/10/24 07:45:15;;;;;;;4.85;3.28;;;;;;;18.84;46.59;95242.25;2617999;54;20396;-81
2022/10/24 07:47:44;;;;;;;3.33;2.67;;;;;;;19.29;45.99;95251.25;2617578;47;20149;-82
2022/10/24 07:50:14;;;;;;;4.80;2.80;;;;;;;18.60;46.24;95231.22;2616759;47;20805;-82
2022/10/24 07:52:43;;;;;;;4.55;3.50;;;;;;;19.00;46.69;95248.13;2616826;54;20199;-78
2022/10/24 07:55:12;;;;;;;2.03;1.83;;;;;;;19.17;46.41;95223.16;2620212;47;20152;-76
2022/10/24 07:57:40;;;;;;;2.92;2.63;;;;;;;19.53;46.11;95231.38;2617584;47;20172;-76
2022/10/24 08:00:11;;;;;;;2.40;2.20;;;;;;;19.56;45.73;95211.97;2622406;54;20149;-76
2022/10/24 08:02:42;;;;;;;1.33;1.33;;;;;;;19.18;44.39;95170.75;2618015;47;20200;-81
2022/10/24 08:05:12;;;;;;;2.38;2.17;;;;;;;19.66;45.51;95223.56;2615216;47;20164;-83
2022/10/24 08:07:41;;;;;;;3.00;2.75;;;;;;;19.75;44.64;95202.78;2616839;47;20244;-80
2022/10/24 08:10:14;;;;;;;1.92;1.83;;;;;;;19.64;44.93;95212.78;2616127;54;20168;-80
2022/10/24 08:12:42;;;;;;;4.03;2.28;;;;;;;19.63;45.41;95211.31;2617417;54;20179;-80
2022/10/24 08:15:13;;;;;;;2.08;1.98;;;;;;;19.84;44.02;95192.75;2616298;47;20172;-80
2022/10/24 08:17:44;;;;;;;3.28;3.08;;;;;;;19.92;43.79;95174.13;2616966;54;20149;-80
2022/10/24 08:20:13;;;;;;;2.45;2.35;;;;;;;20.11;44.52;95199.38;2617570;54;20242;-80
2022/10/24 08:22:42;;;;;;;6.38;2.88;;;;;;;20.16;43.79;95215.22;2617433;54;20648;-78
2022/10/24 08:25:14;;;;;;;2.72;2.53;;;;;;;20.21;44.25;95213.09;2617613;54;20145;-79
2022/10/24 08:27:42;;;;;;;2.72;2.53;;;;;;;20.23;43.38;95192.94;2617769;54;20205;-82
2022/10/24 08:30:12;;;;;;;4.70;3.10;;;;;;;20.26;43.48;95205.91;2618288;47;20404;-83
2022/10/24 08:32:41;;;;;;;2.70;2.47;;;;;;;20.47;43.12;95213.22;2618606;47;20146;-81
2022/10/24 08:35:18;;;;;;;3.75;2.75;;;;;;;20.73;43.72;95218.31;2617884;47;20295;-79
2022/10/24 08:37:47;;;;;;;3.10;2.78;;;;;;;20.45;42.94;95210.31;2617798;47;20194;-79
2022/10/24 08:40:19;;;;;;;3.33;3.03;;;;;;;19.75;45.30;95208.53;2617742;47;20157;-79
2022/10/24 08:42:49;;;;;;;2.53;2.33;;;;;;;18.99;46.45;95194.31;2617905;47;20146;-80
2022/10/24 08:45:25;;;;;;;4.05;2.95;;;;;;;19.32;46.96;95206.75;2617906;47;20153;-77
2022/10/24 08:48:01;;;;;;;2.70;2.60;;;;;;;19.95;45.31;95192.84;2616910;47;20235;-76
2022/10/24 08:50:35;;;;;;;4.80;2.97;;;;;;;19.76;45.96;95194.88;2618011;47;20272;-74
2022/10/24 08:53:08;;;;;;;8.30;3.78;;;;;;;19.87;45.60;95188.47;2617846;47;20163;-77
2022/10/24 08:55:41;;;;;;;5.57;3.63;;;;;;;20.22;44.95;95197.28;2618970;47;20153;-84
2022/10/24 08:58:16;;;;;;;3.10;2.75;;;;;;;20.27;44.33;95187.22;2618236;47;20731;-79
2022/10/24 09:00:48;;;;;;;3.17;2.90;;;;;;;20.02;44.81;95192.13;2616932;54;20183;-76
2022/10/24 09:03:25;;;;;;;3.38;2.33;;;;;;;20.01;45.43;95179.19;2618966;47;21031;-76
2022/10/24 09:05:59;;;;;;;6.95;3.60;;;;;;;20.05;45.07;95176.34;2618914;54;20157;-78
2022/10/24 09:08:35;;;;;;;3.22;2.70;;;;;;;20.27;44.92;95169.22;2618840;46;20136;-87
2022/10/24 09:11:07;;;;;;;2.70;2.42;;;;;;;20.32;44.18;95147.69;2626038;54;20145;-86
2022/10/24 09:13:39;;;;;;;4.05;3.38;;;;;;;20.00;45.06;95156.91;2629292;46;20693;-83
2022/10/24 09:16:12;;;;;;;3.58;3.25;;;;;;;20.53;44.85;95175.81;2617972;54;20404;-77
2022/10/24 09:18:44;;;;;;;6.43;3.72;;;;;;;20.61;44.28;95165.78;2618500;54;20149;-80
2022/10/24 09:21:17;;;;;;;4.70;2.78;;;;;;;20.99;43.71;95173.72;2618337;54;20164;-82
2022/10/24 09:23:46;;;;;;;3.95;2.97;;;;;;;20.60;44.01;95173.69;2617177;54;20149;-78
2022/10/24 09:26:20;;;;;;;5.75;3.47;;;;;;;20.92;43.39;95156.44;2616891;46;20781;-78
2022/10/24 09:28:48;;;;;;;4.53;3.78;;;;;;;20.63;44.00;95174.41;2616907;54;20145;-78
2022/10/24 09:31:20;;;;;;;3.70;3.50;;;;;;;20.71;44.20;95154.28;2618351;54;20174;-80
2022/10/24 09:33:51;;;;;;;4.25;3.00;;;;;;;20.45;44.27;95170.03;2617901;47;20160;-80
2022/10/24 09:36:26;;;;;;;3.65;3.45;;;;;;;20.47;44.04;95167.19;2617919;54;20171;-81
2022/10/24 09:38:54;;;;;;;5.05;3.28;;;;;;;20.63;43.79;95146.34;2617326;47;20152;-80
2022/10/24 09:41:26;;;;;;;4.30;3.03;;;;;;;21.18;43.89;95155.72;2617967;54;20210;-79
2022/10/24 09:43:57;;;;;;;3.75;3.42;;;;;;;21.33;42.79;95144.22;2618125;47;20733;-81
2022/10/24 09:46:29;;;;;;;3.45;3.15;;;;;;;21.72;41.97;95151.38;2618900;54;20148;-81
2022/10/24 09:49:01;;;;;;;3.72;3.42;;;;;;;21.83;41.56;95152.06;2618143;47;20153;-82
2022/10/24 09:51:36;;;;;;;4.65;2.95;;;;;;;21.72;41.92;95153.53;2618187;54;20161;-78
2022/10/24 09:54:22;;;;;;;4.43;3.97;;;;;;;21.31;42.74;95156.50;2617946;47;20157;-78
2022/10/24 09:56:57;;;;;;;3.58;2.75;;;;;;;21.54;42.39;95155.00;2617971;54;20149;-78
2022/10/24 09:59:33;;;;;;;4.10;3.42;;;;;;;21.91;41.15;95155.63;2618905;39;20553;-80
2022/10/24 10:02:25;;;;;;;3.92;3.63;;;;;;;21.60;42.22;95151.38;2617480;54;20154;-83
2022/10/24 10:05:27;;;;;;;3.00;2.80;;;;;;;21.35;43.21;95152.88;2617115;47;20663;-80
2022/10/24 10:07:59;;;;;;;3.40;3.10;;;;;;;21.51;42.35;95150.69;2616249;39;20555;-80
2022/10/24 10:10:36;;;;;;;4.00;3.70;;;;;;;21.38;42.16;95151.41;2617683;47;20678;-78
2022/10/24 10:13:11;;;;;;;4.25;3.28;;;;;;;21.24;43.27;95141.34;2617387;47;20689;-77
2022/10/24 10:15:45;;;;;;;4.75;3.10;;;;;;;21.39;42.47;95126.94;2617621;47;20164;-78
2022/10/24 10:18:35;;;;;;;3.80;2.80;;;;;;;21.43;42.20;95115.41;2618062;54;20194;-79
2022/10/24 10:21:11;;;;;;;3.38;2.95;;;;;;;21.52;42.47;95119.69;2618024;54;20153;-82
2022/10/24 10:23:46;;;;;;;4.00;2.92;;;;;;;21.77;42.15;95121.06;2617503;31;20741;-78
2022/10/24 10:26:27;;;;;;;8.93;3.65;;;;;;;21.83;42.33;95132.59;2622048;54;20174;-78
2022/10/24 10:29:01;;;;;;;3.33;3.03;;;;;;;21.57;41.69;95135.56;2620341;46;20707;-77
2022/10/24 10:31:39;;;;;;;4.10;2.75;;;;;;;21.76;42.07;95124.69;2618602;47;20179;-80
2022/10/24 10:34:24;;;;;;;5.28;2.70;;;;;;;21.67;42.42;95135.53;2618505;54;20149;-80
2022/10/24 10:37:25;;;;;;;3.22;3.03;;;;;;;21.61;41.74;95124.72;2617623;47;20164;-79
2022/10/24 10:40:20;;;;;;;4.25;2.17;;;;;;;21.81;41.84;95118.19;2618060;47;20268;-77
2022/10/24 10:43:01;;;;;;;3.35;2.67;;;;;;;21.69;41.94;95111.75;2618187;54;20157;-80
2022/10/24 10:45:37;;;;;;;2.70;2.33;;;;;;;22.03;40.90;95117.41;2616544;54;20153;-80
2022/10/24 10:48:24;;;;;;;3.70;2.63;;;;;;;21.91;41.34;95118.13;2615551;47;20157;-83
2022/10/24 10:51:00;;;;;;;4.38;2.45;;;;;;;22.19;41.34;95102.91;2618785;47;20774;-82
2022/10/24 10:53:39;;;;;;;3.15;2.00;;;;;;;21.94;41.56;95105.16;2617270;54;20179;-76
2022/10/24 10:56:23;;;;;;;2.47;2.28;;;;;;;22.06;41.36;95092.16;2617756;54;20145;-78
2022/10/24 10:59:09;;;;;;;3.45;2.67;;;;;;;21.86;41.13;95092.94;2619409;54;20145;-81
2022/10/24 11:01:47;;;;;;;3.08;2.25;;;;;;;22.33;41.02;95094.16;2622637;47;20144;-81
2022/10/24 11:04:26;;;;;;;7.38;2.97;;;;;;;22.74;40.05;95084.53;2620237;47;20252;-82
2022/10/24 11:07:03;;;;;;;2.88;2.30;;;;;;;23.04;40.06;95082.13;2603361;47;20571;-84
2022/10/24 11:09:37;;;;;;;2.08;1.88;;;;;;;22.12;40.68;95080.59;2618344;54;20160;-84
2022/10/24 11:12:19;;;;;;;4.15;2.67;;;;;;;22.39;40.67;95081.88;2617486;54;20260;-76
2022/10/24 11:14:53;;;;;;;4.65;2.72;;;;;;;21.83;41.91;95079.97;2616122;47;20152;-81
2022/10/24 11:17:26;;;;;;;2.35;2.25;;;;;;;22.04;41.42;95080.63;2616110;47;20159;-82
2022/10/24 11:20:08;;;;;;;1.67;1.58;;;;;;;22.40;41.13;95059.53;2617122;54;20154;-81
2022/10/24 11:22:42;;;;;;;2.50;2.30;;;;;;;22.79;40.30;95068.63;2616423;54;20156;-81
2022/10/24 11:25:24;;;;;;;4.60;1.83;;;;;;;22.96;39.68;95069.94;2617092;54;20164;-82
2022/10/24 11:28:04;;;;;;;2.50;2.30;;;;;;;23.14;39.40;95063.28;2617083;47;20173;-82
2022/10/24 11:30:43;;;;;;;4.22;2.55;;;;;;;23.23;39.10;95038.63;2616883;47;20156;-82
2022/10/24 11:33:19;;;;;;;6.38;2.70;;;;;;;23.37;38.59;95047.16;2616932;47;20232;-81
2022/10/24 11:36:06;;;;;;;2.72;2.05;;;;;;;23.63;38.44;95044.00;2617395;54;20699;-82
2022/10/24 11:38:39;;;;;;;5.63;2.33;;;;;;;23.53;38.66;95035.44;2621482;47;20159;-81
2022/10/24 11:41:25;;;;;;;2.50;2.33;;;;;;;22.74;39.07;95007.28;2623279;47;20160;-77
2022/10/24 11:44:00;;;;;;;6.55;3.30;;;;;;;23.35;38.87;95044.28;2616987;54;20295;-78
2022/10/24 11:46:38;;;;;;;6.97;2.80;;;;;;;23.16;38.82;95040.13;2617265;47;20148;-75
2022/10/24 11:49:20;;;;;;;1.83;1.67;;;;;;;23.16;39.54;95040.84;2616855;54;20272;-75
2022/10/24 11:51:53;;;;;;;2.85;2.65;;;;;;;23.40;39.42;95026.16;2617870;39;20215;-76
2022/10/24 11:54:27;;;;;;;2.28;2.03;;;;;;;23.09;39.23;95025.06;2617472;54;20176;-82
2022/10/24 11:57:02;;;;;;;4.30;1.73;;;;;;;23.39;38.61;95024.72;2617936;47;20182;-82
2022/10/24 11:59:34;;;;;;;2.60;2.42;;;;;;;22.92;39.24;95027.38;2617117;54;20160;-81
2022/10/24 12:02:27;;;;;;;1.63;1.52;;;;;;;22.92;39.58;95020.88;2616845;47;20276;-76
2022/10/24 12:05:20;;;;;;;2.33;2.17;;;;;;;23.15;38.72;94995.38;2617438;54;20165;-80
2022/10/24 12:08:14;;;;;;;15.43;2.10;;;;;;;23.23;39.35;95019.13;2617629;47;20240;-79
2022/10/24 12:10:58;;;;;;;2.97;2.15;;;;;;;23.50;39.00;95013.06;2617512;47;20160;-81
2022/10/24 12:14:01;;;;;;;3.03;2.80;;;;;;;23.59;38.23;95000.66;2618080;39;20577;-76
2022/10/24 12:16:46;;;;;;;1.95;1.85;;;;;;;23.74;38.02;95001.94;2617350;54;20148;-78
2022/10/24 12:19:18;;;;;;;2.30;1.90;;;;;;;24.08;37.79;95011.59;2618690;47;20149;-82
2022/10/24 12:21:51;;;;;;;1.95;1.83;;;;;;;24.19;37.39;95003.50;2617628;54;20175;-78
2022/10/24 12:24:29;;;;;;;4.90;1.88;;;;;;;24.17;37.48;95006.44;2617439;54;20647;-79
2022/10/24 12:27:01;;;;;;;7.53;2.65;;;;;;;24.21;37.26;94998.38;2617098;54;20664;-79
2022/10/24 12:29:33;;;;;;;2.20;2.10;;;;;;;24.14;37.44;95007.91;2617991;47;20142;-77
2022/10/24 12:32:26;;;;;;;2.08;1.98;;;;;;;23.86;37.78;94992.38;2618091;47;20255;-77
2022/10/24 12:34:59;;;;;;;1.83;1.70;;;;;;;23.79;37.97;94991.00;2618077;47;20157;-79
2022/10/24 12:37:38;;;;;;;2.40;1.40;;;;;;;23.79;38.00;94990.28;2617356;47;20668;-78
2022/10/24 12:40:36;;;;;;;7.43;1.85;;;;;;;23.85;38.04;94993.13;2618171;39;20186;-78
2022/10/24 12:43:17;;;;;;;1.25;1.25;;;;;;;24.04;37.79;94989.25;2618408;46;20161;-80
2022/10/24 12:45:45;;;;;;;1.70;1.60;;;;;;;24.22;37.48;94994.03;2618387;54;20165;-80
2022/10/24 12:48:32;;;;;;;4.90;1.90;;;;;;;24.29;37.27;94988.91;2618137;54;20161;-80
2022/10/24 12:51:29;;;;;;;4.93;1.60;;;;;;;23.96;37.89;94982.84;2620820;54;20156;-81
2022/10/24 12:54:16;;;;;;;4.78;1.75;;;;;;;24.20;38.06;94973.09;2626066;47;20148;-82
2022/10/24 12:57:17;;;;;;;2.25;1.80;;;;;;;24.13;37.51;94983.31;2618909;46;20757;-83
2022/10/24 12:59:51;;;;;;;13.10;1.98;;;;;;;24.12;37.71;94952.97;2618190;47;20172;-83
2022/10/24 13:02:42;;;;;;;2.38;2.25;;;;;;;24.18;37.70;94979.66;2619970;47;20200;-82
2022/10/24 13:05:40;;;;;;;4.15;1.98;;;;;;;23.57;38.39;94974.66;2623214;54;20156;-83
2022/10/24 13:08:35;;;;;;;3.38;2.00;;;;;;;23.68;37.68;94955.00;2619241;47;20164;-82
2022/10/24 13:11:23;;;;;;;3.67;2.47;;;;;;;23.71;38.22;94942.69;2619445;47;20676;-83
2022/10/24 13:14:15;;;;;;;3.63;1.70;;;;;;;24.10;37.87;94982.63;2619029;47;20199;-85
2022/10/24 13:16:53;;;;;;;1.98;1.88;;;;;;;23.67;38.58;94965.88;2619270;47;20207;-83
2022/10/24 13:19:23;;;;;;;1.75;1.65;;;;;;;23.76;38.01;94954.91;2618280;54;20157;-83
2022/10/24 13:21:54;;;;;;;2.95;2.35;;;;;;;23.29;38.80;94978.59;2618826;47;20145;-82
2022/10/24 13:24:38;;;;;;;8.98;2.15;;;;;;;23.15;39.05;94915.19;2618650;47;20152;-79
2022/10/24 13:27:30;;;;;;;3.45;1.40;;;;;;;22.90;39.56;94903.19;2620582;46;20161;-86
2022/10/24 13:30:34;;;;;;;1.80;1.70;;;;;;;23.36;39.09;94956.84;2620924;46;20143;-84
2022/10/24 13:33:35;;;;;;;2.28;1.73;;;;;;;23.67;38.77;94968.03;2619882;47;20156;-83
2022/10/24 13:36:16;;;;;;;1.92;1.83;;;;;;;23.51;39.08;94965.34;2621687;54;20194;-83
2022/10/24 13:38:52;;;;;;;2.15;1.70;;;;;;;23.76;38.94;94968.66;2617349;47;20160;-83
2022/10/24 13:41:30;;;;;;;6.00;1.65;;;;;;;24.01;38.82;94952.41;2617542;54;20168;-82
2022/10/24 13:44:03;;;;;;;1.60;1.50;;;;;;;24.15;38.19;94957.25;2617743;54;20194;-83
2022/10/24 13:46:40;;;;;;;3.80;2.03;;;;;;;24.37;38.87;94959.81;2618084;47;20148;-83
2022/10/24 13:49:09;;;;;;;2.20;2.10;;;;;;;24.51;38.30;94962.50;2617828;46;20203;-83
2022/10/24 13:51:45;;;;;;;1.40;1.30;;;;;;;24.54;38.30;94966.06;2618379;54;20156;-82
2022/10/24 13:54:21;;;;;;;1.75;1.65;;;;;;;24.56;37.49;94960.25;2618297;47;20670;-81
2022/10/24 13:56:53;;;;;;;3.05;1.45;;;;;;;24.50;38.26;94960.34;2618632;54;20755;-80
2022/10/24 13:59:32;;;;;;;2.22;2.03;;;;;;;24.18;38.27;94936.22;2618535;54;20153;-79
2022/10/24 14:02:05;;;;;;;1.60;1.50;;;;;;;24.30;38.24;94955.59;2617960;54;20152;-76
2022/10/24 14:04:35;;;;;;;1.95;1.80;;;;;;;24.26;39.07;94949.88;2618566;54;20148;-77
2022/10/24 14:07:06;;;;;;;2.10;2.00;;;;;;;24.25;38.64;94954.94;2621755;47;20403;-77
2022/10/24 14:09:41;;;;;;;2.00;1.63;;;;;;;24.23;39.41;94939.78;2618278;39;20254;-77
2022/10/24 14:12:21;;;;;;;1.63;1.35;;;;;;;24.28;39.43;94947.66;2617745;54;20148;-76
2022/10/24 14:14:52;;;;;;;2.70;1.70;;;;;;;24.31;39.27;94939.69;2617827;54;20149;-76
2022/10/24 14:17:25;;;;;;;1.48;1.38;;;;;;;24.01;39.72;94932.88;2617686;47;20145;-78
2022/10/24 14:19:56;;;;;;;2.53;1.77;;;;;;;23.92;40.34;94942.38;2617373;47;20145;-81
2022/10/24 14:22:28;;;;;;;2.25;1.60;;;;;;;23.89;40.87;94952.56;2618416;54;20743;-79
2022/10/24 14:25:23;;;;;;;5.05;2.70;;;;;;;23.83;40.67;94923.72;2617562;54;20259;-81
2022/10/24 14:27:56;;;;;;;2.25;2.10;;;;;;;23.68;40.65;94931.88;2615985;54;20157;-81
2022/10/24 14:30:27;;;;;;;3.20;1.88;;;;;;;23.82;40.46;94942.53;2616760;47;20145;-79
2022/10/24 14:33:18;;;;;;;4.85;1.98;;;;;;;23.82;40.58;94951.22;2616556;54;20190;-84
2022/10/24 14:35:47;;;;;;;2.13;2.03;;;;;;;23.43;41.61;94925.69;2618108;54;20157;-80
2022/10/24 14:38:17;;;;;;;4.18;1.98;;;;;;;23.46;41.54;94958.88;2616921;46;20299;-78
2022/10/24 14:40:48;;;;;;;2.50;2.03;;;;;;;23.04;41.95;94925.44;2616740;46;20229;-78
2022/10/24 14:43:22;;;;;;;1.92;1.73;;;;;;;22.86;43.07;94942.94;2615444;47;20157;-79
2022/10/24 14:46:07;;;;;;;3.03;2.55;;;;;;;22.69;43.87;94931.53;2617311;47;20708;-79
2022/10/24 14:48:37;;;;;;;7.03;2.97;;;;;;;22.21;45.74;94940.63;2617802;47;20168;-79
2022/10/24 14:51:09;;;;;;;3.92;2.85;;;;;;;22.07;45.00;94935.66;2617904;47;20153;-80
2022/10/24 14:53:39;;;;;;;2.80;2.60;;;;;;;21.97;46.27;94936.44;2618797;39;20743;-79
2022/10/24 14:56:21;;;;;;;7.65;2.40;;;;;;;21.33;47.40;94917.34;2603431;46;21151;-81
2022/10/24 14:58:56;;;;;;;5.07;2.83;;;;;;;20.91;47.89;94915.31;2617325;46;20206;-78
2022/10/24 15:01:26;;;;;;;4.60;2.83;;;;;;;21.11;47.63;94938.28;2617658;39;20266;-78
2022/10/24 15:03:57;;;;;;;4.68;4.28;;;;;;;21.21;48.11;94941.16;2617267;54;20176;-78
2022/10/24 15:06:28;;;;;;;3.08;2.72;;;;;;;20.92;48.24;94905.94;2618679;47;20191;-77
2022/10/24 15:09:05;;;;;;;6.18;4.25;;;;;;;21.14;47.81;94931.09;2619655;54;20160;-78
2022/10/24 15:11:40;;;;;;;3.10;2.78;;;;;;;21.41;45.84;94922.34;2617621;47;20149;-80
2022/10/24 15:14:46;;;;;;;8.18;2.17;;;;;;;21.71;44.82;94936.59;2617908;47;20156;-80
2022/10/24 15:17:29;;;;;;;2.25;2.08;;;;;;;21.91;44.74;94924.22;2617288;47;20191;-80
2022/10/24 15:19:59;;;;;;;18.45;8.18;;;;;;;22.19;43.88;94937.75;2623837;47;20149;-78
2022/10/24 15:22:31;;;;;;;6.45;4.30;;;;;;;22.01;44.32;94932.09;2617258;47;20165;-80
2022/10/24 15:25:02;;;;;;;13.25;5.38;;;;;;;21.69;45.79;94933.72;2618075;39;20576;-78
2022/10/24 15:27:33;;;;;;;7.47;4.30;;;;;;;21.30;46.32;94920.97;2617443;47;20152;-79
2022/10/24 15:30:05;;;;;;;3.85;3.08;;;;;;;21.10;46.24;94913.81;2617607;54;20157;-79
2022/10/24 15:32:33;;;;;;;5.25;3.30;;;;;;;21.03;47.51;94921.06;2617901;54;20244;-79
2022/10/24 15:35:02;;;;;;;4.85;2.67;;;;;;;20.03;48.31;94865.09;2617877;54;20161;-80
2022/10/24 15:37:31;;;;;;;3.53;3.33;;;;;;;20.63;48.54;94926.91;2617603;47;20152;-80
2022/10/24 15:40:05;;;;;;;2.40;2.28;;;;;;;21.12;46.05;94933.97;2619667;47;20145;-78
2022/10/24 15:42:34;;;;;;;3.00;2.80;;;;;;;21.56;44.85;94944.63;2618105;39;20590;-79
2022/10/24 15:45:14;;;;;;;4.05;2.45;;;;;;;21.52;44.97;94927.34;2617216;47;20160;-79
2022/10/24 15:47:43;;;;;;;3.72;2.38;;;;;;;21.20;45.90;94933.94;2617491;47;20156;-80
2022/10/24 15:50:15;;;;;;;7.25;4.10;;;;;;;20.99;47.00;94934.72;2617194;54;20187;-80
2022/10/24 15:52:46;;;;;;;5.50;3.65;;;;;;;20.70;46.56;94908.19;2617468;47;20295;-80
2022/10/24 15:55:19;;;;;;;5.47;3.17;;;;;;;20.76;46.62;94931.19;2617204;54;20164;-78
2022/10/24 15:57:48;;;;;;;4.53;3.35;;;;;;;20.84;46.71;94943.41;2617778;47;20145;-77
2022/10/24 16:00:23;;;;;;;5.57;2.67;;;;;;;20.76;47.21;94934.81;2617618;54;20176;-80
2022/10/24 16:02:56;;;;;;;5.65;2.35;;;;;;;20.26;48.02;94932.66;2615787;54;20199;-78
2022/10/24 16:05:27;;;;;;;7.40;6.90;;;;;;;19.60;50.21;94936.19;2618398;54;20152;-79
2022/10/24 16:07:56;;;;;;;10.48;6.38;;;;;;;19.67;50.04;94940.53;2618313;46;20210;-80
2022/10/24 16:10:24;;;;;;;2.28;2.10;;;;;;;19.15;51.48;94942.47;2620326;39;20556;-78